Forside
METAR-TAF:

METAR-TAF

Lufthavne :

Bornholms Lufthavn

Rønne, Danmark

Breddekreds: 55-04N, længdekreds: 014-45E, højde: 16 m

Aktuelle vejr

Denne rapport blev lavet for 32 minutter siden, kl. 08:20 UTC
Vind 9 kt fra østnordøst
Temperatur 17°C
Fugtighed 82%
Tryk 1019 hPa
Sigt 10 km eller mere
let regn,

METAR: EKRN 260820Z AUTO 07009KT 9999 -RA FEW048/// SCT056/// BKN090/// 17/14 Q1019

Tid: 10:52 (08:52 UTC)

Vejrudsigter

Denne rapport blev lavet for 26 minutter siden, kl. 08:26 UTC
Foreløbig gælder fra 26 på 09 UTC til 26 på 18 UTC
Vind 6 kt fra østsydøst
Sigt 10 km eller mere
Brudte skyer i en højde af 5000 ft
Midlertidig
fra 26 på 09 UTC til 26 på 18 UTC
Sigt: 2500 m
Brudte skyer i en højde af 3000 ft, Cumulonimbus.
tordenbyger, kraftig regn,

TAF: EKRN 260826Z 2609/2618 11006KT 9999 BKN050 TEMPO 2609/2618 2500 +TSRA BKN030CB

Vejrobservationer og prognoser fra mere end 4000 lufthavne (METAR og TAF).

De gule og røde prikker repræsenterer de meteorologiske stationer.

Flyt musen over at se navnet på stationen.

Så klik over at se vejr observationer og prognoser.

At skifte det kort: Klik på de grønne knapper med et sort kors for at zoome ind; på den grønne knap med en bindestreg for at zoome ud; eller på de grønne pile for tilstødende kort.


METAR-TAF: